Rosedale, Kansas
Current Conditions -  °F | °C
As of 12:54 AM on Saturday 01 Nov 2014 (Local Time) from KMKC Reporting Station
Clear Clear  
Wind Chill: 34°   Ceiling: Unl
Heat Index: 34°   Visibility: 10mi
Dew Point: 19°   Wind: 0mph
Humidity: 54%   Direction: NA
Pressure: 30.47"   Gusts: NA
Location:  39.0609°N, 94.6263°W
Report Text: KMKC 010554Z 00000KT 10SM CLR 01/M07 A3047 RMK AO2 SLP322 T00111072 10050 20000 401110000 51001
Loading
Personal Weather Stations






























Interactive Weather Map
Tropical Storm Tracking
New forecast layout! Learn more

10-Day Weather Forecast

Advertisements
Track Severe Weather on mobile